Time;durP1;ratioP1;P1;durP2;ratioP2;P2;SDS_P1;SDS_P2;PMS_P1;PMS_P2;Temp;Humidity;BMP_temperature;BMP_pressure;BME280_temperature;BME280_humidity;BME280_pressure;Samples;Min_cycle;Max_cycle;Signal;HPM_P1;HPM_P2
2022/04/13 00:03:41;;;;;;;43.70;21.80;;;;;;;4.38;78.17;101341.09;10465146;28;20213;-68
2022/04/13 00:08:44;;;;;;;46.33;22.57;;;;;;;4.27;77.40;101337.31;10464873;28;20232;-67
2022/04/13 00:13:48;;;;;;;50.37;23.37;;;;;;;4.12;78.13;101337.72;10464670;28;20732;-67
2022/04/13 00:18:52;;;;;;;47.13;23.07;;;;;;;4.16;79.66;101342.13;10463879;28;20224;-69
2022/04/13 00:23:56;;;;;;;47.07;22.77;;;;;;;4.10;78.08;101341.94;10464359;28;20217;-67
2022/04/13 00:29:01;;;;;;;45.90;22.07;;;;;;;4.06;79.29;101347.78;10464417;28;20239;-68
2022/04/13 00:34:06;;;;;;;44.33;20.57;;;;;;;4.18;77.48;101345.59;10464058;28;20237;-67
2022/04/13 00:39:09;;;;;;;40.53;20.53;;;;;;;4.12;77.67;101350.56;10464551;28;20230;-66
2022/04/13 00:44:13;;;;;;;42.23;20.03;;;;;;;4.05;78.23;101342.59;10463729;28;20211;-70
2022/04/13 00:49:18;;;;;;;39.83;18.80;;;;;;;4.04;78.87;101346.00;10463562;28;20231;-67
2022/04/13 00:54:22;;;;;;;37.27;18.27;;;;;;;3.94;78.42;101342.25;10463224;28;20640;-68
2022/04/13 00:59:27;;;;;;;39.83;18.53;;;;;;;3.99;78.44;101342.41;10463088;28;20189;-67
2022/04/13 01:04:32;;;;;;;35.03;17.90;;;;;;;3.96;79.15;101344.88;10463303;28;20193;-70
2022/04/13 01:09:36;;;;;;;39.00;17.20;;;;;;;3.95;79.83;101349.13;10462786;28;20217;-68
2022/04/13 01:14:39;;;;;;;32.93;16.30;;;;;;;3.89;79.08;101341.25;10462801;28;20229;-67
2022/04/13 01:19:46;;;;;;;34.00;17.37;;;;;;;3.73;79.45;101358.69;10462349;28;20667;-67
2022/04/13 01:24:51;;;;;;;35.23;17.70;;;;;;;3.74;81.42;101355.28;10462703;28;20197;-67
2022/04/13 01:29:54;;;;;;;36.13;17.00;;;;;;;3.71;82.11;101352.63;10461841;28;20731;-67
2022/04/13 01:34:58;;;;;;;34.90;17.20;;;;;;;3.61;81.29;101364.25;10461988;28;20277;-67
2022/04/13 01:40:03;;;;;;;38.63;17.27;;;;;;;3.45;81.51;101357.72;10461675;28;20211;-68
2022/04/13 01:45:07;;;;;;;35.90;16.93;;;;;;;3.46;83.18;101358.59;10461437;28;20216;-66
2022/04/13 01:50:10;;;;;;;37.87;15.27;;;;;;;3.62;82.78;101360.88;10461004;28;20266;-66
2022/04/13 01:55:15;;;;;;;35.03;16.93;;;;;;;3.56;84.10;101365.78;10460630;28;20244;-68
2022/04/13 02:00:19;;;;;;;34.40;16.30;;;;;;;3.59;85.26;101365.03;10460556;28;20315;-67
2022/04/13 02:05:22;;;;;;;35.60;15.37;;;;;;;3.57;84.95;101369.25;10459802;28;20227;-67
2022/04/13 02:10:27;;;;;;;35.17;16.40;;;;;;;3.54;84.41;101378.56;10460230;28;20224;-65
2022/04/13 02:15:30;;;;;;;32.37;16.07;;;;;;;3.51;86.11;101380.16;10459931;28;20240;-64
2022/04/13 02:20:33;;;;;;;30.37;15.83;;;;;;;3.37;86.25;101391.63;10460017;28;20216;-65
2022/04/13 02:25:38;;;;;;;30.27;15.57;;;;;;;3.35;86.36;101393.28;10459697;28;20220;-64
2022/04/13 02:30:41;;;;;;;38.60;17.47;;;;;;;3.35;87.48;101394.16;10459509;28;20221;-65
2022/04/13 02:35:48;;;;;;;31.07;15.97;;;;;;;3.32;88.38;101381.22;10459825;28;20243;-66
2022/04/13 02:40:53;;;;;;;30.27;16.43;;;;;;;3.38;88.53;101386.56;10459395;28;20220;-65
2022/04/13 02:45:58;;;;;;;32.37;16.17;;;;;;;3.39;88.51;101397.69;10459200;28;20217;-65
2022/04/13 02:51:02;;;;;;;29.43;16.63;;;;;;;3.34;88.06;101410.38;10458967;28;20244;-67
2022/04/13 02:56:06;;;;;;;30.93;15.77;;;;;;;3.34;87.91;101404.38;10458941;28;20208;-67
2022/04/13 03:01:10;;;;;;;30.37;15.10;;;;;;;3.30;88.12;101399.94;10458858;28;20224;-66
2022/04/13 03:06:13;;;;;;;30.10;15.27;;;;;;;3.21;88.74;101389.38;10458662;28;20283;-66
2022/04/13 03:11:17;;;;;;;32.90;15.23;;;;;;;3.01;89.75;101386.06;10458201;28;20232;-67
2022/04/13 03:16:21;;;;;;;31.37;15.80;;;;;;;3.11;90.77;101400.09;10460083;28;20220;-67
2022/04/13 03:21:24;;;;;;;31.90;15.13;;;;;;;3.11;90.62;101400.97;10466603;28;20228;-69
2022/04/13 03:26:29;;;;;;;32.47;15.73;;;;;;;3.11;89.79;101408.66;10466922;28;20212;-70
2022/04/13 03:31:32;;;;;;;33.10;16.87;;;;;;;2.92;90.49;101406.25;10466397;28;20690;-70
2022/04/13 03:36:39;;;;;;;31.37;15.63;;;;;;;3.00;90.83;101401.41;10465629;28;20213;-67
2022/04/13 03:41:44;;;;;;;32.77;15.40;;;;;;;3.02;91.16;101398.06;10466466;28;20234;-70
2022/04/13 03:46:47;;;;;;;36.73;18.37;;;;;;;3.09;91.06;101401.75;10466547;28;20216;-69
2022/04/13 03:51:51;;;;;;;38.50;17.20;;;;;;;3.10;92.95;101398.34;10466043;28;20616;-67
2022/04/13 03:56:56;;;;;;;33.23;15.57;;;;;;;2.98;93.12;101403.03;10465567;28;20602;-68
2022/04/13 04:01:59;;;;;;;33.17;15.93;;;;;;;3.04;91.43;101409.25;10465443;28;20304;-68
2022/04/13 04:07:02;;;;;;;42.83;16.07;;;;;;;2.96;92.43;101420.06;10465233;28;20684;-70
2022/04/13 04:12:08;;;;;;;37.90;16.87;;;;;;;2.78;91.44;101430.47;10465235;28;20680;-71
2022/04/13 04:17:11;;;;;;;37.33;16.00;;;;;;;2.75;91.25;101439.75;10466263;28;20225;-69
2022/04/13 04:22:15;;;;;;;41.83;16.57;;;;;;;2.79;91.29;101434.81;10462910;28;20307;-69
2022/04/13 04:27:20;;;;;;;39.67;16.80;;;;;;;2.93;91.43;101432.75;10463939;28;20244;-68
2022/04/13 04:32:23;;;;;;;35.60;17.33;;;;;;;2.95;91.03;101437.09;10463968;28;20224;-69
2022/04/13 04:37:26;;;;;;;38.23;18.07;;;;;;;3.02;91.81;101451.06;10463812;28;20539;-68
2022/04/13 04:42:31;;;;;;;41.53;17.90;;;;;;;2.99;93.25;101462.06;10463351;28;20559;-69
2022/04/13 04:47:35;;;;;;;41.83;17.63;;;;;;;3.14;93.46;101461.78;10463707;28;20223;-69
2022/04/13 04:52:41;;;;;;;39.93;17.30;;;;;;;3.21;93.32;101456.06;10463352;28;20270;-68
2022/04/13 04:57:47;;;;;;;43.73;19.90;;;;;;;3.28;93.60;101465.69;10463763;28;20238;-69
2022/04/13 05:02:52;;;;;;;40.97;19.23;;;;;;;3.45;93.31;101454.38;10462648;28;20295;-68
2022/04/13 05:07:55;;;;;;;39.23;19.00;;;;;;;3.62;93.34;101457.53;10462807;28;20300;-67
2022/04/13 05:13:02;;;;;;;43.63;20.63;;;;;;;3.68;93.12;101445.78;10462263;28;20566;-67
2022/04/13 05:18:06;;;;;;;50.03;21.83;;;;;;;3.77;92.75;101448.66;10462457;28;20217;-68
2022/04/13 05:23:10;;;;;;;46.73;21.23;;;;;;;3.94;92.19;101455.25;10461907;28;20220;-68
2022/04/13 05:28:15;;;;;;;42.50;21.23;;;;;;;4.04;91.11;101448.75;10461645;28;20279;-68
2022/04/13 05:33:21;;;;;;;44.53;21.27;;;;;;;4.17;91.16;101449.19;10461552;28;20227;-66
2022/04/13 05:38:24;;;;;;;52.67;21.43;;;;;;;4.25;90.08;101452.88;10460468;28;20320;-68
2022/04/13 05:43:33;;;;;;;48.70;19.17;;;;;;;4.38;90.81;101457.56;10460848;28;20284;-69
2022/04/13 05:48:36;;;;;;;42.47;20.27;;;;;;;4.56;90.53;101460.75;10460873;28;20216;-68
2022/04/13 05:53:39;;;;;;;46.47;22.50;;;;;;;4.71;89.51;101463.78;10460477;28;20237;-70
2022/04/13 05:58:44;;;;;;;46.13;21.17;;;;;;;4.89;88.97;101460.03;10460462;28;20217;-66
2022/04/13 06:03:47;;;;;;;52.70;21.43;;;;;;;5.00;88.81;101456.09;10460612;28;20308;-66
2022/04/13 06:08:52;;;;;;;47.00;21.70;;;;;;;5.12;88.42;101461.59;10460414;28;20228;-65
2022/04/13 06:14:02;;;;;;;47.60;22.20;;;;;;;5.25;88.15;101468.84;10459682;28;20251;-66
2022/04/13 06:19:05;;;;;;;48.47;22.93;;;;;;;5.40;87.26;101470.16;10459697;28;20235;-67
2022/04/13 06:24:09;;;;;;;42.07;21.50;;;;;;;5.56;86.96;101466.31;10459585;28;20547;-66
2022/04/13 06:29:13;;;;;;;41.33;20.93;;;;;;;5.72;86.54;101473.63;10459459;28;20220;-65
2022/04/13 06:34:17;;;;;;;41.43;19.23;;;;;;;5.90;85.29;101478.44;10458312;28;20204;-67
2022/04/13 06:39:21;;;;;;;44.30;20.17;;;;;;;6.10;83.40;101483.28;10441265;28;20244;-66
2022/04/13 06:44:26;;;;;;;36.07;18.77;;;;;;;6.25;82.51;101490.50;10457851;28;20205;-66
2022/04/13 06:49:29;;;;;;;39.67;16.53;;;;;;;6.43;80.83;101485.81;10455486;28;20228;-67
2022/04/13 06:54:33;;;;;;;40.83;17.77;;;;;;;6.64;78.89;101491.50;10457692;28;20208;-67
2022/04/13 06:59:38;;;;;;;41.23;17.27;;;;;;;6.77;76.95;101498.69;10457570;28;20205;-66
2022/04/13 07:04:42;;;;;;;34.53;17.17;;;;;;;6.89;76.48;101507.59;10457197;28;20193;-69
2022/04/13 07:09:45;;;;;;;24.17;12.07;;;;;;;7.19;73.20;101496.19;10457440;28;20222;-63
2022/04/13 07:14:50;;;;;;;27.87;13.40;;;;;;;7.38;69.42;101503.50;10456997;28;20231;-63
2022/04/13 07:19:53;;;;;;;24.90;12.77;;;;;;;7.61;70.37;101505.72;10456701;28;20211;-63
2022/04/13 07:24:56;;;;;;;25.43;12.20;;;;;;;7.75;68.97;101508.56;10457062;28;20197;-63
2022/04/13 07:30:01;;;;;;;25.17;9.40;;;;;;;7.91;65.95;101501.16;10458009;28;20229;-64
2022/04/13 07:35:05;;;;;;;20.80;8.93;;;;;;;8.09;61.51;101508.38;10457560;28;20283;-64
2022/04/13 07:40:13;;;;;;;17.50;8.40;;;;;;;8.27;61.79;101503.56;10457918;28;20193;-63
2022/04/13 07:45:18;;;;;;;28.20;8.93;;;;;;;8.47;60.32;101497.03;10458063;28;20270;-65
2022/04/13 07:50:21;;;;;;;14.83;6.33;;;;;;;8.72;60.11;101487.91;10457732;28;20590;-65
2022/04/13 07:55:26;;;;;;;13.43;4.57;;;;;;;8.85;57.36;101498.47;10457133;28;20204;-64
2022/04/13 08:00:31;;;;;;;12.20;6.00;;;;;;;9.06;57.00;101497.94;10454193;28;20275;-64
2022/04/13 08:05:34;;;;;;;7.23;3.27;;;;;;;9.32;57.10;101501.72;10462818;28;20207;-64
2022/04/13 08:10:37;;;;;;;10.60;5.03;;;;;;;9.40;54.68;101500.13;10464055;28;20673;-64
2022/04/13 08:15:43;;;;;;;10.47;4.60;;;;;;;9.50;54.28;101498.50;10463605;28;20233;-63
2022/04/13 08:20:46;;;;;;;12.17;5.17;;;;;;;9.62;54.80;101478.81;10463239;28;20236;-65
2022/04/13 08:25:50;;;;;;;10.97;4.80;;;;;;;9.75;52.70;101482.41;10462611;28;20671;-63
2022/04/13 08:30:55;;;;;;;17.37;6.07;;;;;;;9.87;52.76;101482.56;10463270;28;20220;-64
2022/04/13 08:35:58;;;;;;;11.63;5.27;;;;;;;10.03;51.55;101479.25;10462930;28;20571;-63
2022/04/13 08:41:03;;;;;;;14.83;5.93;;;;;;;10.14;51.18;101464.69;10462244;28;20209;-65
2022/04/13 08:46:12;;;;;;;10.77;5.10;;;;;;;10.35;52.47;101473.53;10462504;28;20209;-64
2022/04/13 08:51:18;;;;;;;9.67;5.47;;;;;;;10.39;50.74;101469.22;10460795;28;20244;-63
2022/04/13 08:56:23;;;;;;;15.67;5.37;;;;;;;10.60;51.53;101465.94;10461963;28;20228;-64
2022/04/13 09:01:37;;;;;;;12.63;5.90;;;;;;;10.92;51.72;101464.44;10462213;28;20220;-67
2022/04/13 09:06:43;;;;;;;8.50;5.00;;;;;;;10.97;50.33;101463.63;10460795;28;20218;-63
2022/04/13 09:11:47;;;;;;;18.47;9.33;;;;;;;11.17;50.05;101469.78;10461519;28;20568;-64
2022/04/13 09:16:52;;;;;;;12.03;5.97;;;;;;;11.58;49.26;101456.97;10458613;28;20223;-65
2022/04/13 09:21:57;;;;;;;11.97;5.17;;;;;;;11.92;49.64;101463.16;10461322;28;20212;-64
2022/04/13 09:27:01;;;;;;;12.30;4.67;;;;;;;12.04;47.96;101458.88;10460882;28;20212;-64
2022/04/13 09:32:08;;;;;;;12.60;5.03;;;;;;;12.93;47.23;101443.19;10461574;28;20221;-69
2022/04/13 09:37:12;;;;;;;10.43;4.53;;;;;;;14.10;46.90;101430.50;10461425;28;20296;-69
2022/04/13 09:42:15;;;;;;;72.73;45.87;;;;;;;15.09;45.84;101416.50;10461276;28;20217;-70
2022/04/13 09:47:20;;;;;;;13.20;6.03;;;;;;;15.84;43.60;101415.53;10460710;28;20257;-65
2022/04/13 09:52:27;;;;;;;9.27;4.90;;;;;;;16.37;42.22;101398.97;10461010;28;20220;-69
2022/04/13 09:57:30;;;;;;;9.33;4.40;;;;;;;16.80;40.25;101396.47;10460579;28;20648;-70
2022/04/13 10:02:37;;;;;;;8.70;4.33;;;;;;;17.68;39.16;101399.03;10460973;28;20235;-69
2022/04/13 10:07:41;;;;;;;9.77;4.40;;;;;;;18.21;38.36;101384.63;10460067;28;20735;-69
2022/04/13 10:12:48;;;;;;;12.27;5.23;;;;;;;18.67;36.95;101384.34;10459804;28;20236;-71
2022/04/13 10:17:58;;;;;;;9.43;4.70;;;;;;;19.15;36.25;101375.06;10459119;28;20347;-68
2022/04/13 10:23:03;;;;;;;14.57;5.50;;;;;;;19.73;36.98;101359.25;10457954;28;20216;-69
2022/04/13 10:28:10;;;;;;;12.80;5.13;;;;;;;19.78;36.33;101349.44;10458859;28;20224;-71
2022/04/13 10:33:17;;;;;;;12.63;5.43;;;;;;;19.96;35.68;101354.13;10459472;28;20678;-70
2022/04/13 10:38:20;;;;;;;10.50;4.90;;;;;;;20.80;34.32;101354.75;10459114;28;20224;-68
2022/04/13 10:43:27;;;;;;;11.23;5.37;;;;;;;20.54;33.98;101339.84;10459406;28;20223;-68
2022/04/13 10:48:34;;;;;;;15.53;5.53;;;;;;;20.95;35.00;101343.66;10458927;28;20220;-72
2022/04/13 10:53:45;;;;;;;11.10;4.83;;;;;;;21.14;35.38;101340.28;10458986;28;20227;-70
2022/04/13 10:58:58;;;;;;;10.00;4.97;;;;;;;21.04;33.52;101340.69;10458518;28;20266;-72
2022/04/13 11:04:06;;;;;;;11.77;5.43;;;;;;;21.25;33.76;101324.03;10458759;28;20231;-71
2022/04/13 11:09:16;;;;;;;11.77;5.13;;;;;;;21.60;33.28;101331.44;10458146;28;20239;-70
2022/04/13 11:14:20;;;;;;;8.93;4.90;;;;;;;21.56;32.69;101327.19;10458367;28;20319;-69
2022/04/13 11:19:25;;;;;;;11.17;4.63;;;;;;;21.85;33.44;101340.13;10457948;28;20213;-71
2022/04/13 11:24:36;;;;;;;8.87;4.60;;;;;;;20.71;32.98;101344.56;10458444;28;20223;-70
2022/04/13 11:29:41;;;;;;;10.83;4.80;;;;;;;20.58;33.59;101338.84;10458503;28;20229;-70
2022/04/13 11:34:49;;;;;;;9.13;5.03;;;;;;;22.00;31.95;101330.72;10458249;28;20221;-71
2022/04/13 11:39:54;;;;;;;10.00;4.87;;;;;;;21.95;32.43;101324.78;10463443;28;20236;-70
2022/04/13 11:45:02;;;;;;;8.53;4.57;;;;;;;21.64;33.33;101325.97;10466161;28;20220;-71
2022/04/13 11:50:21;;;;;;;7.43;4.67;;;;;;;20.78;32.85;101319.66;10466354;28;20232;-66
2022/04/13 11:55:26;;;;;;;9.13;4.40;;;;;;;20.92;32.09;101323.50;10465874;28;20314;-69
2022/04/13 12:00:40;;;;;;;8.63;4.20;;;;;;;20.76;31.42;101316.22;10465358;28;20244;-71
2022/04/13 12:05:47;;;;;;;8.20;4.33;;;;;;;20.20;32.27;101315.56;10465409;28;20261;-71
2022/04/13 12:10:52;;;;;;;8.90;4.43;;;;;;;19.59;32.67;101307.94;10464679;28;20227;-70
2022/04/13 12:15:57;;;;;;;10.33;6.00;;;;;;;19.61;35.21;101304.34;10465217;28;20228;-70
2022/04/13 12:21:12;;;;;;;9.40;4.63;;;;;;;19.58;33.52;101301.81;10464453;28;20354;-72
2022/04/13 12:26:16;;;;;;;12.70;4.83;;;;;;;19.49;33.78;101284.53;10423200;28;20213;-73
2022/04/13 12:31:19;;;;;;;8.43;4.47;;;;;;;19.08;33.60;101281.41;10459293;28;20225;-72
2022/04/13 12:36:24;;;;;;;9.20;4.63;;;;;;;18.72;34.19;101282.50;10464353;28;20220;-70
2022/04/13 12:41:29;;;;;;;8.93;4.73;;;;;;;18.47;34.70;101284.06;10463633;28;20221;-68
2022/04/13 12:46:34;;;;;;;12.37;5.30;;;;;;;18.13;33.75;101281.47;10463508;28;20221;-70
2022/04/13 12:51:41;;;;;;;9.20;4.83;;;;;;;18.00;36.62;101283.53;10462742;28;20221;-66
2022/04/13 12:56:48;;;;;;;9.40;5.13;;;;;;;17.80;34.92;101277.06;10463237;28;20239;-66
2022/04/13 13:01:52;;;;;;;12.47;5.40;;;;;;;17.68;36.09;101270.38;10462586;28;20567;-65
2022/04/13 13:06:59;;;;;;;12.53;4.90;;;;;;;17.64;36.71;101262.56;10462690;28;20300;-64
2022/04/13 13:12:04;;;;;;;8.80;4.47;;;;;;;17.63;37.19;101256.50;10462249;28;20267;-64
2022/04/13 13:17:18;;;;;;;6.87;4.60;;;;;;;17.69;36.07;101258.09;10462487;28;20699;-65
2022/04/13 13:22:24;;;;;;;7.50;4.60;;;;;;;17.42;37.06;101261.34;10462154;28;20217;-64
2022/04/13 13:27:30;;;;;;;12.57;6.63;;;;;;;17.37;35.94;101265.84;10462046;28;20227;-66
2022/04/13 13:32:36;;;;;;;7.73;4.20;;;;;;;17.61;38.27;101260.03;10460070;28;20231;-63
2022/04/13 13:37:43;;;;;;;10.17;4.87;;;;;;;17.27;38.19;101270.44;10461814;28;20544;-64
2022/04/13 13:42:47;;;;;;;9.13;4.90;;;;;;;17.13;38.41;101256.78;10461583;28;20721;-66
2022/04/13 13:47:50;;;;;;;9.43;4.97;;;;;;;17.10;39.24;101254.22;10461192;28;20213;-63
2022/04/13 13:52:55;;;;;;;12.83;4.60;;;;;;;16.87;36.92;101259.09;10460713;28;20247;-63
2022/04/13 13:57:59;;;;;;;9.30;5.27;;;;;;;16.74;37.90;101252.41;10460914;28;20343;-64
2022/04/13 14:03:03;;;;;;;8.63;4.07;;;;;;;16.70;38.57;101248.97;10459374;28;20229;-66
2022/04/13 14:08:10;;;;;;;9.37;4.57;;;;;;;16.66;39.35;101252.56;10460378;28;20222;-66
2022/04/13 14:13:15;;;;;;;16.90;5.27;;;;;;;16.47;39.62;101247.69;10459839;28;20243;-64
2022/04/13 14:18:19;;;;;;;10.00;4.83;;;;;;;16.46;39.75;101244.25;10460333;28;20522;-63
2022/04/13 14:23:24;;;;;;;9.70;4.23;;;;;;;16.31;38.16;101248.88;10459661;28;20234;-64
2022/04/13 14:28:27;;;;;;;8.87;4.13;;;;;;;16.23;40.24;101248.16;10460120;28;20258;-68
2022/04/13 14:33:30;;;;;;;12.13;4.73;;;;;;;16.14;39.37;101249.19;10459192;28;20664;-70
2022/04/13 14:38:35;;;;;;;8.63;3.90;;;;;;;15.97;40.70;101252.13;10459090;28;20220;-70
2022/04/13 14:43:38;;;;;;;9.33;4.70;;;;;;;15.87;40.34;101247.06;10458545;28;20706;-71
2022/04/13 14:48:42;;;;;;;11.07;4.50;;;;;;;15.81;41.28;101255.88;10458991;28;20801;-66
2022/04/13 14:53:46;;;;;;;7.83;4.57;;;;;;;15.78;39.90;101250.72;10458619;28;20221;-67
2022/04/13 14:58:50;;;;;;;12.17;4.50;;;;;;;15.59;40.01;101248.41;10458315;28;20223;-65
2022/04/13 15:03:53;;;;;;;9.73;4.20;;;;;;;15.47;42.55;101244.25;10458356;28;20237;-66
2022/04/13 15:08:58;;;;;;;11.70;4.43;;;;;;;15.43;40.64;101236.50;10486538;28;20635;-69
2022/04/13 15:14:03;;;;;;;9.53;4.27;;;;;;;15.37;40.23;101240.03;10510000;28;20228;-63
2022/04/13 15:19:09;;;;;;;10.40;4.20;;;;;;;15.19;40.82;101229.81;10513747;28;20677;-63
2022/04/13 15:24:15;;;;;;;12.73;4.70;;;;;;;15.06;40.95;101231.75;10513779;28;20708;-64
2022/04/13 15:29:19;;;;;;;6.97;4.20;;;;;;;14.99;42.98;101232.75;10513746;28;20554;-63
2022/04/13 15:34:22;;;;;;;10.53;4.20;;;;;;;14.88;41.93;101233.75;10508874;28;20243;-63
2022/04/13 15:39:28;;;;;;;11.07;4.40;;;;;;;14.76;41.51;101244.38;10471381;28;20449;-62
2022/04/13 15:44:31;;;;;;;14.83;5.50;;;;;;;14.68;42.57;101243.63;10471658;28;20550;-63
2022/04/13 15:49:35;;;;;;;8.90;4.40;;;;;;;14.58;43.25;101242.00;10471978;28;20217;-67
2022/04/13 15:54:40;;;;;;;10.97;5.53;;;;;;;14.65;42.74;101244.50;10471157;28;20551;-67
2022/04/13 15:59:44;;;;;;;7.67;3.93;;;;;;;14.59;41.55;101243.72;10470293;28;20216;-65
2022/04/13 16:04:47;;;;;;;7.87;4.13;;;;;;;14.56;42.76;101238.56;10455610;28;20214;-67
2022/04/13 16:09:52;;;;;;;7.63;3.90;;;;;;;14.49;41.68;101242.13;10429309;28;20272;-66
2022/04/13 16:14:55;;;;;;;10.07;4.40;;;;;;;14.42;42.75;101243.94;10429453;28;20233;-67
2022/04/13 16:19:59;;;;;;;10.13;4.37;;;;;;;14.34;42.46;101247.53;10429801;28;20204;-67
2022/04/13 16:25:04;;;;;;;12.43;4.00;;;;;;;14.28;42.57;101240.63;10424732;28;20221;-63
2022/04/13 16:30:08;;;;;;;26.33;12.90;;;;;;;14.07;44.51;101238.19;10422958;28;20525;-60
2022/04/13 16:35:12;;;;;;;11.93;5.30;;;;;;;13.88;45.02;101242.75;10422704;28;20232;-62
2022/04/13 16:40:17;;;;;;;11.67;4.43;;;;;;;13.74;46.32;101248.94;10422498;28;20308;-69
2022/04/13 16:45:21;;;;;;;10.27;4.87;;;;;;;13.68;46.80;101255.06;10422516;28;20207;-72
2022/04/13 16:50:24;;;;;;;11.60;4.67;;;;;;;13.69;46.62;101245.50;10422122;28;20255;-68
2022/04/13 16:55:29;;;;;;;34.50;21.10;;;;;;;13.68;46.10;101254.22;10421866;28;20687;-63
2022/04/13 17:00:33;;;;;;;11.73;6.43;;;;;;;13.64;45.94;101255.13;10421693;28;20292;-66
2022/04/13 17:05:37;;;;;;;45.57;23.47;;;;;;;13.55;47.10;101255.19;10421540;28;20312;-65
2022/04/13 17:10:41;;;;;;;12.53;4.40;;;;;;;13.53;46.23;101251.75;10421539;28;20217;-65
2022/04/13 17:15:45;;;;;;;11.10;4.30;;;;;;;13.47;45.75;101260.50;10421132;28;20237;-65
2022/04/13 17:20:49;;;;;;;9.07;3.90;;;;;;;13.32;46.20;101265.78;10421111;28;20223;-66
2022/04/13 17:25:57;;;;;;;15.63;5.57;;;;;;;13.15;47.38;101257.22;10420668;28;20303;-66
2022/04/13 17:31:01;;;;;;;13.63;6.37;;;;;;;13.14;48.04;101254.63;10420776;28;20225;-65
2022/04/13 17:36:06;;;;;;;12.40;5.00;;;;;;;13.06;48.99;101262.50;10419055;28;20320;-65
2022/04/13 17:41:11;;;;;;;11.10;4.67;;;;;;;12.93;49.15;101265.13;10420258;28;20546;-67
2022/04/13 17:46:16;;;;;;;11.47;5.03;;;;;;;12.85;48.50;101257.38;10418846;28;20304;-66
2022/04/13 17:51:20;;;;;;;10.17;4.80;;;;;;;12.73;48.58;101262.63;10420013;28;20213;-68
2022/04/13 17:56:25;;;;;;;11.20;5.00;;;;;;;12.58;48.52;101265.31;10419510;28;20225;-67
2022/04/13 18:01:28;;;;;;;10.50;4.93;;;;;;;12.50;48.58;101264.44;10419251;28;20271;-64
2022/04/13 18:06:31;;;;;;;10.73;5.57;;;;;;;12.50;47.95;101254.03;10419355;28;20214;-67
2022/04/13 18:11:36;;;;;;;13.93;6.37;;;;;;;12.44;49.17;101259.28;10418924;28;20228;-66
2022/04/13 18:16:41;;;;;;;119.40;59.17;;;;;;;12.37;49.03;101258.41;10418442;28;20295;-65
2022/04/13 18:21:45;;;;;;;22.63;8.23;;;;;;;12.22;49.64;101257.59;10418629;28;20225;-67
2022/04/13 18:26:50;;;;;;;25.47;12.07;;;;;;;12.12;49.65;101258.47;10418729;28;20225;-69
2022/04/13 18:31:53;;;;;;;16.63;7.83;;;;;;;12.07;49.71;101268.03;10418435;28;20223;-69
2022/04/13 18:36:57;;;;;;;21.40;9.77;;;;;;;12.01;49.56;101268.06;10433913;28;20615;-70
2022/04/13 18:42:01;;;;;;;24.33;12.40;;;;;;;11.91;50.12;101267.19;10418097;28;20549;-68
2022/04/13 18:47:05;;;;;;;21.73;9.47;;;;;;;11.69;50.91;101270.66;10417621;28;20761;-69
2022/04/13 18:52:09;;;;;;;17.50;8.07;;;;;;;11.61;51.37;101272.38;10417703;28;20597;-71
2022/04/13 18:57:15;;;;;;;16.87;7.23;;;;;;;11.48;51.85;101276.69;10417669;28;20224;-68
2022/04/13 19:02:18;;;;;;;17.40;8.70;;;;;;;11.39;51.86;101276.69;10417552;28;20304;-68
2022/04/13 19:07:22;;;;;;;16.87;8.40;;;;;;;11.33;52.62;101278.41;10417603;28;20214;-67
2022/04/13 19:12:27;;;;;;;17.67;8.70;;;;;;;11.23;52.91;101274.91;10416978;28;20237;-68
2022/04/13 19:17:31;;;;;;;19.00;8.90;;;;;;;11.12;53.39;101279.25;10417299;28;20224;-67
2022/04/13 19:22:35;;;;;;;24.00;10.83;;;;;;;11.03;53.55;101275.72;10417448;28;20213;-69
2022/04/13 19:27:43;;;;;;;22.60;11.10;;;;;;;11.03;53.50;101279.19;10417244;28;20213;-67
2022/04/13 19:32:46;;;;;;;26.23;10.27;;;;;;;10.91;54.97;101279.16;10416512;28;20320;-68
2022/04/13 19:37:49;;;;;;;20.60;10.50;;;;;;;10.66;59.38;101281.66;10416817;28;20701;-69
2022/04/13 19:42:54;;;;;;;19.90;9.90;;;;;;;10.50;57.78;101283.31;10417012;28;20300;-62
2022/04/13 19:47:57;;;;;;;20.10;10.07;;;;;;;10.46;60.13;101292.81;10416751;28;20313;-63
2022/04/13 19:53:01;;;;;;;24.67;10.97;;;;;;;10.25;57.58;101295.28;10442572;28;20559;-62
2022/04/13 19:58:06;;;;;;;25.47;10.73;;;;;;;10.37;56.76;101300.56;10458709;28;20300;-66
2022/04/13 20:03:10;;;;;;;22.07;10.10;;;;;;;10.31;58.78;101294.47;10465576;28;20220;-68
2022/04/13 20:08:14;;;;;;;25.90;11.70;;;;;;;10.23;58.74;101304.78;10465381;28;20225;-66
2022/04/13 20:13:19;;;;;;;22.53;10.47;;;;;;;10.16;58.86;101305.59;10464629;28;20323;-66
2022/04/13 20:18:22;;;;;;;27.30;12.10;;;;;;;10.17;56.97;101303.88;10464873;28;20220;-67
2022/04/13 20:23:25;;;;;;;23.17;11.57;;;;;;;10.00;60.76;101301.16;10464708;28;20300;-65
2022/04/13 20:28:30;;;;;;;26.97;12.17;;;;;;;9.96;60.25;101301.09;10464695;28;20236;-68
2022/04/13 20:33:34;;;;;;;25.50;11.77;;;;;;;9.81;58.79;101298.41;10464230;28;20307;-68
2022/04/13 20:38:37;;;;;;;25.50;13.43;;;;;;;9.70;60.28;101289.69;10464230;28;20535;-66
2022/04/13 20:43:41;;;;;;;23.73;12.07;;;;;;;9.65;60.64;101296.53;10463926;28;20652;-66
2022/04/13 20:48:45;;;;;;;22.97;11.80;;;;;;;9.66;58.91;101293.09;10463729;28;20221;-66
2022/04/13 20:53:50;;;;;;;23.43;12.10;;;;;;;9.56;61.15;101296.47;10463678;28;20558;-67
2022/04/13 20:58:55;;;;;;;23.33;12.20;;;;;;;9.41;62.64;101296.31;10463518;28;20185;-67
2022/04/13 21:03:58;;;;;;;29.67;12.90;;;;;;;9.39;62.66;101301.47;10463312;28;20207;-66
2022/04/13 21:09:02;;;;;;;22.07;11.23;;;;;;;9.34;63.15;101296.25;10462027;28;20223;-67
2022/04/13 21:14:07;;;;;;;24.40;11.53;;;;;;;9.23;63.20;101300.44;10462791;28;20228;-65
2022/04/13 21:19:18;;;;;;;26.53;13.10;;;;;;;9.23;63.87;101297.00;10462987;28;20201;-77
2022/04/13 21:24:32;;;;;;;24.67;12.63;;;;;;;9.11;62.62;101295.13;10462693;28;20278;-67
2022/04/13 21:29:36;;;;;;;24.17;11.40;;;;;;;9.15;62.74;101289.16;10462316;28;20200;-68
2022/04/13 21:34:40;;;;;;;24.83;12.10;;;;;;;9.02;63.58;101291.59;10461913;28;20219;-67
2022/04/13 21:39:43;;;;;;;24.93;12.10;;;;;;;8.89;65.18;101297.47;10461798;28;20219;-68
2022/04/13 21:44:48;;;;;;;24.93;11.97;;;;;;;8.93;63.40;101294.97;10461643;28;20303;-64
2022/04/13 21:49:51;;;;;;;25.83;11.60;;;;;;;8.86;63.81;101285.38;10461471;28;20200;-68
2022/04/13 21:54:54;;;;;;;25.57;12.97;;;;;;;8.73;64.38;101292.97;10460847;28;20235;-69
2022/04/13 22:00:00;;;;;;;30.23;14.07;;;;;;;8.64;66.54;101298.91;10460911;28;20236;-67
2022/04/13 22:05:04;;;;;;;25.53;12.30;;;;;;;8.70;65.94;101295.50;10460038;28;20239;-66
2022/04/13 22:10:08;;;;;;;23.23;12.20;;;;;;;8.67;67.68;101292.88;10459003;28;20223;-74
2022/04/13 22:15:13;;;;;;;23.93;12.17;;;;;;;8.55;67.48;101290.16;10460013;28;20680;-66
2022/04/13 22:20:16;;;;;;;23.87;12.37;;;;;;;8.49;66.67;101298.69;10459972;28;20543;-68
2022/04/13 22:25:20;;;;;;;27.50;14.17;;;;;;;8.47;68.50;101299.53;10459849;28;20278;-67
2022/04/13 22:30:25;;;;;;;27.67;13.77;;;;;;;8.33;69.56;101306.22;10459641;28;20209;-67
2022/04/13 22:35:28;;;;;;;31.57;13.50;;;;;;;8.30;68.16;101295.84;10459455;28;20666;-65
2022/04/13 22:40:32;;;;;;;27.63;14.07;;;;;;;8.18;69.35;101299.09;10459423;28;20269;-68
2022/04/13 22:45:37;;;;;;;32.50;13.47;;;;;;;8.15;69.37;101299.03;10458498;28;20220;-65
2022/04/13 22:50:40;;;;;;;30.67;15.27;;;;;;;8.17;68.42;101294.78;10459057;28;20687;-67
2022/04/13 22:55:44;;;;;;;32.63;14.87;;;;;;;8.13;70.82;101291.28;10459056;28;20235;-66
2022/04/13 23:00:48;;;;;;;32.65;17.55;;;;;;;7.95;70.88;101285.84;10457948;28;20429;-62
2022/04/13 23:05:52;;;;;;;31.73;16.30;;;;;;;7.91;70.97;101283.16;10458791;28;20311;-62